sensor_id;sensor_type;location;lat;lon;timestamp;pressure;altitude;pressure_sealevel;temperature;humidity
45864;BME280;31579;52.354;16.974;2023-05-02T00:00:27;-78.7;;;-146.1;100.0
45864;BME280;31579;52.354;16.974;2023-05-02T00:01:07;-80.2;;;-146.1;100.0
45864;BME280;31579;52.354;16.974;2023-05-02T00:02:11;-78.5;;;-146.1;100.0
45864;BME280;31579;52.354;16.974;2023-05-02T00:03:15;-79.9;;;-146.1;100.0
45864;BME280;31579;52.354;16.974;2023-05-02T00:04:19;-82.1;;;-146.1;100.0
45864;BME280;31579;52.354;16.974;2023-05-02T00:05:23;-84.7;;;-146.1;100.0
45864;BME280;31579;52.354;16.974;2023-05-02T00:06:27;-87.1;;;-146.1;100.0
45864;BME280;31579;52.354;16.974;2023-05-02T00:07:31;-89.6;;;-146.1;100.0
45864;BME280;31579;52.354;16.974;2023-05-02T00:08:35;-90.3;;;-146.1;100.0
45864;BME280;31579;52.354;16.974;2023-05-02T00:09:39;-89.3;;;-146.1;100.0
45864;BME280;31579;52.354;16.974;2023-05-02T00:10:43;-88.3;;;-146.1;100.0
45864;BME280;31579;52.354;16.974;2023-05-02T00:11:47;-87.7;;;-146.1;100.0
45864;BME280;31579;52.354;16.974;2023-05-02T00:12:51;-88.6;;;-146.1;100.0
45864;BME280;31579;52.354;16.974;2023-05-02T00:13:56;-89.6;;;-146.1;100.0
45864;BME280;31579;52.354;16.974;2023-05-02T00:15:00;-88.6;;;-146.1;100.0
45864;BME280;31579;52.354;16.974;2023-05-02T00:16:05;-88.9;;;-146.1;100.0
45864;BME280;31579;52.354;16.974;2023-05-02T00:18:14;-90.5;;;-146.1;100.0
45864;BME280;31579;52.354;16.974;2023-05-02T00:19:18;-89.8;;;-146.1;100.0
45864;BME280;31579;52.354;16.974;2023-05-02T00:20:22;-90.0;;;-146.1;100.0
45864;BME280;31579;52.354;16.974;2023-05-02T00:21:26;-91.5;;;-146.1;100.0
45864;BME280;31579;52.354;16.974;2023-05-02T00:22:30;-93.5;;;-146.1;100.0
45864;BME280;31579;52.354;16.974;2023-05-02T00:23:34;-95.0;;;-146.1;100.0
45864;BME280;31579;52.354;16.974;2023-05-02T00:24:38;-96.6;;;-146.1;100.0
45864;BME280;31579;52.354;16.974;2023-05-02T00:26:46;-99.8;;;-146.1;100.0
45864;BME280;31579;52.354;16.974;2023-05-02T00:27:50;-101.0;;;-146.1;100.0
45864;BME280;31579;52.354;16.974;2023-05-02T00:28:54;-101.4;;;-146.1;100.0
45864;BME280;31579;52.354;16.974;2023-05-02T00:29:58;-101.4;;;-146.1;100.0
45864;BME280;31579;52.354;16.974;2023-05-02T00:31:00;-106.7;;;-146.1;100.0
45864;BME280;31579;52.354;16.974;2023-05-02T00:32:02;-107.7;;;-146.1;100.0
45864;BME280;31579;52.354;16.974;2023-05-02T00:33:07;-101.7;;;-146.1;100.0
45864;BME280;31579;52.354;16.974;2023-05-02T00:34:11;-100.9;;;-146.1;100.0
45864;BME280;31579;52.354;16.974;2023-05-02T00:35:15;-100.1;;;-146.1;100.0
45864;BME280;31579;52.354;16.974;2023-05-02T00:36:19;-99.8;;;-146.1;100.0
45864;BME280;31579;52.354;16.974;2023-05-02T00:37:24;-99.5;;;-146.1;100.0
45864;BME280;31579;52.354;16.974;2023-05-02T00:38:27;-99.4;;;-146.1;100.0
45864;BME280;31579;52.354;16.974;2023-05-02T00:39:32;-99.8;;;-146.1;100.0
45864;BME280;31579;52.354;16.974;2023-05-02T00:41:39;-99.7;;;-146.1;100.0
45864;BME280;31579;52.354;16.974;2023-05-02T00:42:43;-99.7;;;-146.1;100.0
45864;BME280;31579;52.354;16.974;2023-05-02T00:43:47;-100.3;;;-146.1;100.0
45864;BME280;31579;52.354;16.974;2023-05-02T00:44:51;-100.9;;;-146.1;100.0
45864;BME280;31579;52.354;16.974;2023-05-02T00:45:55;-101.4;;;-146.1;100.0
45864;BME280;31579;52.354;16.974;2023-05-02T00:47:00;-102.2;;;-146.1;100.0
45864;BME280;31579;52.354;16.974;2023-05-02T00:48:02;-108.3;;;-146.1;100.0
45864;BME280;31579;52.354;16.974;2023-05-02T00:49:07;-104.4;;;-146.1;100.0
45864;BME280;31579;52.354;16.974;2023-05-02T00:50:11;-105.8;;;-146.1;100.0
45864;BME280;31579;52.354;16.974;2023-05-02T00:51:16;-107.6;;;-146.1;100.0
45864;BME280;31579;52.354;16.974;2023-05-02T00:52:20;-109.8;;;-146.1;100.0
45864;BME280;31579;52.354;16.974;2023-05-02T00:53:24;-110.7;;;-146.1;100.0
45864;BME280;31579;52.354;16.974;2023-05-02T00:54:29;-112.5;;;-146.1;100.0
45864;BME280;31579;52.354;16.974;2023-05-02T00:55:33;-114.2;;;-146.1;100.0
45864;BME280;31579;52.354;16.974;2023-05-02T00:56:37;-115.5;;;-146.1;100.0
45864;BME280;31579;52.354;16.974;2023-05-02T00:57:41;-117.0;;;-146.1;100.0
45864;BME280;31579;52.354;16.974;2023-05-02T00:58:45;-118.6;;;-146.1;100.0
45864;BME280;31579;52.354;16.974;2023-05-02T00:59:49;-119.9;;;-146.1;100.0
45864;BME280;31579;52.354;16.974;2023-05-02T01:08:51;-126.7;;;-146.1;100.0
45864;BME280;31579;52.354;16.974;2023-05-02T01:10:52;-127.1;;;-146.1;100.0
45864;BME280;31579;52.354;16.974;2023-05-02T01:11:59;-127.4;;;-146.1;100.0
45864;BME280;31579;52.354;16.974;2023-05-02T01:13:11;-127.7;;;-146.1;100.0
45864;BME280;31579;52.354;16.974;2023-05-02T01:14:04;-128.0;;;-146.1;100.0
45864;BME280;31579;52.354;16.974;2023-05-02T01:15:10;-128.2;;;-146.1;100.0
45864;BME280;31579;52.354;16.974;2023-05-02T01:16:12;-127.7;;;-146.1;100.0
45864;BME280;31579;52.354;16.974;2023-05-02T01:17:16;-127.9;;;-146.1;100.0
45864;BME280;31579;52.354;16.974;2023-05-02T01:18:21;-127.5;;;-146.1;100.0
45864;BME280;31579;52.354;16.974;2023-05-02T01:19:25;-127.1;;;-146.1;100.0
45864;BME280;31579;52.354;16.974;2023-05-02T01:20:28;-127.3;;;-146.1;100.0
45864;BME280;31579;52.354;16.974;2023-05-02T01:21:32;-127.3;;;-146.1;100.0
45864;BME280;31579;52.354;16.974;2023-05-02T01:22:36;-127.3;;;-146.1;100.0
45864;BME280;31579;52.354;16.974;2023-05-02T01:29:03;-129.5;;;-146.1;100.0
45864;BME280;31579;52.354;16.974;2023-05-02T01:30:05;-130.1;;;-146.1;100.0
45864;BME280;31579;52.354;16.974;2023-05-02T01:31:09;-130.5;;;-146.1;100.0
45864;BME280;31579;52.354;16.974;2023-05-02T01:32:13;-131.4;;;-146.1;100.0
45864;BME280;31579;52.354;16.974;2023-05-02T01:33:17;-132.8;;;-146.1;100.0
45864;BME280;31579;52.354;16.974;2023-05-02T01:34:21;-133.6;;;-146.1;100.0
45864;BME280;31579;52.354;16.974;2023-05-02T01:35:25;-134.2;;;-146.1;100.0
45864;BME280;31579;52.354;16.974;2023-05-02T01:36:30;-134.5;;;-146.1;100.0
45864;BME280;31579;52.354;16.974;2023-05-02T01:37:33;-135.5;;;-146.1;100.0
45864;BME280;31579;52.354;16.974;2023-05-02T01:38:37;-136.3;;;-146.1;100.0
45864;BME280;31579;52.354;16.974;2023-05-02T01:39:41;-136.2;;;-146.1;100.0
45864;BME280;31579;52.354;16.974;2023-05-02T01:40:45;-136.5;;;-146.1;100.0
45864;BME280;31579;52.354;16.974;2023-05-02T01:41:50;-137.1;;;-146.1;100.0
45864;BME280;31579;52.354;16.974;2023-05-02T01:42:53;-137.4;;;-146.1;100.0
45864;BME280;31579;52.354;16.974;2023-05-02T01:43:58;-137.4;;;-146.1;100.0
45864;BME280;31579;52.354;16.974;2023-05-02T01:45:02;-137.1;;;-146.1;100.0
45864;BME280;31579;52.354;16.974;2023-05-02T01:46:05;-137.1;;;-146.1;100.0
45864;BME280;31579;52.354;16.974;2023-05-02T01:47:09;-136.4;;;-146.1;100.0
45864;BME280;31579;52.354;16.974;2023-05-02T01:48:13;-135.9;;;-146.1;100.0
45864;BME280;31579;52.354;16.974;2023-05-02T01:49:17;-134.8;;;-146.1;100.0
45864;BME280;31579;52.354;16.974;2023-05-02T01:50:22;-133.3;;;-146.1;100.0
45864;BME280;31579;52.354;16.974;2023-05-02T01:51:27;-130.9;;;-146.1;100.0
45864;BME280;31579;52.354;16.974;2023-05-02T01:52:30;-128.5;;;-146.1;100.0
45864;BME280;31579;52.354;16.974;2023-05-02T01:53:34;-127.3;;;-146.1;100.0
45864;BME280;31579;52.354;16.974;2023-05-02T01:54:39;-126.8;;;-146.1;100.0
45864;BME280;31579;52.354;16.974;2023-05-02T01:55:43;-126.5;;;-146.1;100.0
45864;BME280;31579;52.354;16.974;2023-05-02T01:56:46;-126.1;;;-146.1;100.0
45864;BME280;31579;52.354;16.974;2023-05-02T01:57:50;-125.7;;;-146.1;100.0
45864;BME280;31579;52.354;16.974;2023-05-02T01:58:54;-125.1;;;-146.1;100.0
45864;BME280;31579;52.354;16.974;2023-05-02T01:59:58;-124.4;;;-146.1;100.0
45864;BME280;31579;52.354;16.974;2023-05-02T02:01:00;-71.4;;;-146.1;100.0
45864;BME280;31579;52.354;16.974;2023-05-02T02:02:03;-93.9;;;-146.1;100.0
45864;BME280;31579;52.354;16.974;2023-05-02T02:03:07;-117.2;;;-146.1;100.0
45864;BME280;31579;52.354;16.974;2023-05-02T02:04:12;-118.1;;;-146.1;100.0
45864;BME280;31579;52.354;16.974;2023-05-02T02:05:15;-117.3;;;-146.1;100.0
45864;BME280;31579;52.354;16.974;2023-05-02T02:06:19;-116.6;;;-146.1;100.0
45864;BME280;31579;52.354;16.974;2023-05-02T02:07:23;-115.2;;;-146.1;100.0
45864;BME280;31579;52.354;16.974;2023-05-02T02:08:27;-114.0;;;-146.1;100.0
45864;BME280;31579;52.354;16.974;2023-05-02T02:09:31;-113.1;;;-146.1;100.0
45864;BME280;31579;52.354;16.974;2023-05-02T02:10:40;-112.0;;;-146.1;100.0
45864;BME280;31579;52.354;16.974;2023-05-02T02:11:43;-110.2;;;-146.1;100.0
45864;BME280;31579;52.354;16.974;2023-05-02T02:12:47;-108.9;;;-146.1;100.0
45864;BME280;31579;52.354;16.974;2023-05-02T02:13:49;-106.6;;;-146.1;100.0
45864;BME280;31579;52.354;16.974;2023-05-02T02:15:58;-105.0;;;-146.1;100.0
45864;BME280;31579;52.354;16.974;2023-05-02T02:17:01;-104.5;;;-146.1;100.0
45864;BME280;31579;52.354;16.974;2023-05-02T02:18:12;-103.0;;;-146.1;100.0
45864;BME280;31579;52.354;16.974;2023-05-02T02:19:09;-103.4;;;-146.1;100.0
45864;BME280;31579;52.354;16.974;2023-05-02T02:20:14;-103.1;;;-146.1;100.0
45864;BME280;31579;52.354;16.974;2023-05-02T02:21:17;-101.2;;;-146.1;100.0
45864;BME280;31579;52.354;16.974;2023-05-02T02:22:22;-99.4;;;-146.1;100.0
45864;BME280;31579;52.354;16.974;2023-05-02T02:23:26;-97.6;;;-146.1;100.0
45864;BME280;31579;52.354;16.974;2023-05-02T02:24:29;-96.4;;;-146.1;100.0
45864;BME280;31579;52.354;16.974;2023-05-02T02:25:33;-94.5;;;-146.1;100.0
45864;BME280;31579;52.354;16.974;2023-05-02T02:26:37;-92.0;;;-146.1;100.0
45864;BME280;31579;52.354;16.974;2023-05-02T02:27:42;-89.5;;;-146.1;100.0
45864;BME280;31579;52.354;16.974;2023-05-02T02:28:45;-87.4;;;-146.1;100.0
45864;BME280;31579;52.354;16.974;2023-05-02T02:29:49;-85.5;;;-146.1;100.0
45864;BME280;31579;52.354;16.974;2023-05-02T02:30:53;-83.9;;;-146.1;100.0
45864;BME280;31579;52.354;16.974;2023-05-02T02:31:57;-81.9;;;-146.1;100.0
45864;BME280;31579;52.354;16.974;2023-05-02T02:33:01;-79.5;;;-146.1;100.0
45864;BME280;31579;52.354;16.974;2023-05-02T02:34:05;-76.8;;;-146.1;100.0
45864;BME280;31579;52.354;16.974;2023-05-02T02:35:09;-73.6;;;-146.1;100.0
45864;BME280;31579;52.354;16.974;2023-05-02T02:36:19;-71.0;;;-146.1;100.0
45864;BME280;31579;52.354;16.974;2023-05-02T02:37:18;-68.9;;;-146.1;100.0
45864;BME280;31579;52.354;16.974;2023-05-02T02:38:30;-67.1;;;-146.1;100.0
45864;BME280;31579;52.354;16.974;2023-05-02T02:39:30;-65.8;;;-146.1;100.0
45864;BME280;31579;52.354;16.974;2023-05-02T02:40:32;-63.9;;;-146.1;100.0
45864;BME280;31579;52.354;16.974;2023-05-02T02:51:19;-43.2;;;-146.1;100.0
45864;BME280;31579;52.354;16.974;2023-05-02T02:56:37;-34.5;;;-146.1;100.0
45864;BME280;31579;52.354;16.974;2023-05-02T02:57:49;-32.5;;;-146.1;100.0
45864;BME280;31579;52.354;16.974;2023-05-02T03:00:52;-27.0;;;-146.1;100.0
45864;BME280;31579;52.354;16.974;2023-05-02T03:02:00;-23.2;;;-146.1;100.0
45864;BME280;31579;52.354;16.974;2023-05-02T03:03:00;-20.1;;;-146.1;100.0
45864;BME280;31579;52.354;16.974;2023-05-02T03:04:04;33.0;;;-146.1;100.0
45864;BME280;31579;52.354;16.974;2023-05-02T03:05:08;-7.4;;;-146.1;100.0
45864;BME280;31579;52.354;16.974;2023-05-02T03:06:12;-8.6;;;-146.1;100.0
45864;BME280;31579;52.354;16.974;2023-05-02T03:07:15;-6.1;;;-146.1;100.0
45864;BME280;31579;52.354;16.974;2023-05-02T03:08:19;-3.3;;;-146.1;100.0
45864;BME280;31579;52.354;16.974;2023-05-02T03:09:23;-2.2;;;-146.1;100.0
45864;BME280;31579;52.354;16.974;2023-05-02T03:10:27;-1.3;;;-146.1;100.0
45864;BME280;31579;52.354;16.974;2023-05-02T03:11:31;-1.0;;;-146.1;100.0
45864;BME280;31579;52.354;16.974;2023-05-02T03:12:35;-1.9;;;-146.1;100.0
45864;BME280;31579;52.354;16.974;2023-05-02T03:13:39;-1.4;;;-146.1;100.0
45864;BME280;31579;52.354;16.974;2023-05-02T03:14:43;0.6;;;-146.1;100.0
45864;BME280;31579;52.354;16.974;2023-05-02T03:16:52;7.0;;;-146.1;100.0
45864;BME280;31579;52.354;16.974;2023-05-02T03:17:56;11.3;;;-146.1;100.0
45864;BME280;31579;52.354;16.974;2023-05-02T03:19:01;15.6;;;-146.1;100.0
45864;BME280;31579;52.354;16.974;2023-05-02T03:20:06;21.1;;;-146.1;100.0
45864;BME280;31579;52.354;16.974;2023-05-02T03:21:09;24.9;;;-146.1;100.0
45864;BME280;31579;52.354;16.974;2023-05-02T03:22:13;28.2;;;-146.1;100.0
45864;BME280;31579;52.354;16.974;2023-05-02T03:23:17;30.5;;;-146.1;100.0
45864;BME280;31579;52.354;16.974;2023-05-02T03:24:21;33.9;;;-146.1;100.0
45864;BME280;31579;52.354;16.974;2023-05-02T03:25:25;38.3;;;-146.1;100.0
45864;BME280;31579;52.354;16.974;2023-05-02T03:26:29;41.6;;;-146.1;100.0
45864;BME280;31579;52.354;16.974;2023-05-02T03:27:33;45.5;;;-146.1;100.0
45864;BME280;31579;52.354;16.974;2023-05-02T03:28:38;48.8;;;-146.1;100.0
45864;BME280;31579;52.354;16.974;2023-05-02T03:29:41;53.9;;;-146.1;100.0
45864;BME280;31579;52.354;16.974;2023-05-02T03:30:45;57.8;;;-146.1;100.0
45864;BME280;31579;52.354;16.974;2023-05-02T03:31:49;60.8;;;-146.1;100.0
45864;BME280;31579;52.354;16.974;2023-05-02T03:32:53;64.0;;;-146.1;100.0
45864;BME280;31579;52.354;16.974;2023-05-02T03:33:57;66.7;;;-146.1;100.0
45864;BME280;31579;52.354;16.974;2023-05-02T03:35:01;70.0;;;-146.1;100.0
45864;BME280;31579;52.354;16.974;2023-05-02T03:36:06;72.8;;;-146.1;100.0
45864;BME280;31579;52.354;16.974;2023-05-02T03:37:09;75.0;;;-146.1;100.0
45864;BME280;31579;52.354;16.974;2023-05-02T03:38:13;77.9;;;-146.1;100.0
45864;BME280;31579;52.354;16.974;2023-05-02T03:39:17;79.3;;;-146.1;100.0
45864;BME280;31579;52.354;16.974;2023-05-02T03:40:21;82.4;;;-146.1;100.0
45864;BME280;31579;52.354;16.974;2023-05-02T03:41:25;85.9;;;-146.1;100.0
45864;BME280;31579;52.354;16.974;2023-05-02T03:42:29;89.2;;;-146.1;100.0
45864;BME280;31579;52.354;16.974;2023-05-02T03:43:33;92.2;;;-146.1;100.0
45864;BME280;31579;52.354;16.974;2023-05-02T03:44:37;96.0;;;-146.1;100.0
45864;BME280;31579;52.354;16.974;2023-05-02T03:45:41;98.2;;;-146.1;100.0
45864;BME280;31579;52.354;16.974;2023-05-02T03:46:46;102.1;;;-146.1;100.0
45864;BME280;31579;52.354;16.974;2023-05-02T03:47:49;107.2;;;-146.1;100.0
45864;BME280;31579;52.354;16.974;2023-05-02T03:48:56;112.3;;;-146.1;100.0
45864;BME280;31579;52.354;16.974;2023-05-02T03:49:59;116.5;;;-146.1;100.0
45864;BME280;31579;52.354;16.974;2023-05-02T03:51:01;234.3;;;-146.1;100.0
45864;BME280;31579;52.354;16.974;2023-05-02T03:52:05;147.0;;;-146.1;100.0
45864;BME280;31579;52.354;16.974;2023-05-02T03:53:10;142.1;;;-146.1;100.0
45864;BME280;31579;52.354;16.974;2023-05-02T03:54:13;143.1;;;-146.1;100.0
45864;BME280;31579;52.354;16.974;2023-05-02T03:55:17;145.5;;;-146.1;100.0
45864;BME280;31579;52.354;16.974;2023-05-02T03:56:21;147.2;;;-146.1;100.0
45864;BME280;31579;52.354;16.974;2023-05-02T03:57:28;154.0;;;-146.1;100.0
45864;BME280;31579;52.354;16.974;2023-05-02T03:58:29;158.1;;;-146.1;100.0
45864;BME280;31579;52.354;16.974;2023-05-02T03:59:33;165.1;;;-146.1;100.0
45864;BME280;31579;52.354;16.974;2023-05-02T04:00:37;171.8;;;-146.1;100.0
45864;BME280;31579;52.354;16.974;2023-05-02T04:01:42;177.3;;;-146.1;100.0
45864;BME280;31579;52.354;16.974;2023-05-02T04:02:45;182.6;;;-146.1;100.0
45864;BME280;31579;52.354;16.974;2023-05-02T04:03:50;189.8;;;-146.1;100.0
45864;BME280;31579;52.354;16.974;2023-05-02T04:04:53;198.6;;;-146.1;100.0
45864;BME280;31579;52.354;16.974;2023-05-02T04:05:57;205.8;;;-146.1;100.0
45864;BME280;31579;52.354;16.974;2023-05-02T04:07:02;214.3;;;-146.1;100.0
45864;BME280;31579;52.354;16.974;2023-05-02T04:08:05;221.6;;;-146.1;100.0
45864;BME280;31579;52.354;16.974;2023-05-02T04:09:09;228.6;;;-146.1;100.0
45864;BME280;31579;52.354;16.974;2023-05-02T04:10:13;236.4;;;-146.1;100.0
45864;BME280;31579;52.354;16.974;2023-05-02T04:11:17;244.5;;;-146.1;100.0
45864;BME280;31579;52.354;16.974;2023-05-02T04:12:21;252.2;;;-146.1;100.0
45864;BME280;31579;52.354;16.974;2023-05-02T04:13:25;258.9;;;-146.1;100.0
45864;BME280;31579;52.354;16.974;2023-05-02T04:14:29;265.8;;;-146.1;100.0
45864;BME280;31579;52.354;16.974;2023-05-02T04:15:33;272.7;;;-146.1;100.0
45864;BME280;31579;52.354;16.974;2023-05-02T04:16:37;278.0;;;-146.1;100.0
45864;BME280;31579;52.354;16.974;2023-05-02T04:17:42;283.1;;;-146.1;100.0
45864;BME280;31579;52.354;16.974;2023-05-02T04:18:46;287.9;;;-146.1;100.0
45864;BME280;31579;52.354;16.974;2023-05-02T04:19:50;292.7;;;-146.1;100.0
45864;BME280;31579;52.354;16.974;2023-05-02T04:20:53;297.9;;;-146.1;100.0
45864;BME280;31579;52.354;16.974;2023-05-02T04:21:57;302.9;;;-146.1;100.0
45864;BME280;31579;52.354;16.974;2023-05-02T04:23:01;307.6;;;-146.1;100.0
45864;BME280;31579;52.354;16.974;2023-05-02T04:24:08;314.6;;;-146.1;100.0
45864;BME280;31579;52.354;16.974;2023-05-02T04:25:09;319.4;;;-146.1;100.0
45864;BME280;31579;52.354;16.974;2023-05-02T04:26:13;321.9;;;-146.1;100.0
45864;BME280;31579;52.354;16.974;2023-05-02T04:27:17;325.2;;;-146.1;100.0
45864;BME280;31579;52.354;16.974;2023-05-02T04:28:21;327.7;;;-146.1;100.0
45864;BME280;31579;52.354;16.974;2023-05-02T04:29:26;329.9;;;-146.1;100.0
45864;BME280;31579;52.354;16.974;2023-05-02T04:30:31;331.5;;;-146.1;100.0
45864;BME280;31579;52.354;16.974;2023-05-02T04:31:34;333.0;;;-146.1;100.0
45864;BME280;31579;52.354;16.974;2023-05-02T04:32:39;334.9;;;-146.1;100.0
45864;BME280;31579;52.354;16.974;2023-05-02T04:33:44;337.2;;;-146.1;100.0
45864;BME280;31579;52.354;16.974;2023-05-02T04:34:47;339.0;;;-146.1;100.0
45864;BME280;31579;52.354;16.974;2023-05-02T04:35:51;341.8;;;-146.1;100.0
45864;BME280;31579;52.354;16.974;2023-05-02T04:36:56;347.9;;;-146.1;100.0
45864;BME280;31579;52.354;16.974;2023-05-02T04:38:01;350.3;;;-146.1;100.0
45864;BME280;31579;52.354;16.974;2023-05-02T04:39:03;376.7;;;-146.1;100.0
45864;BME280;31579;52.354;16.974;2023-05-02T04:40:08;360.5;;;-146.1;100.0
45864;BME280;31579;52.354;16.974;2023-05-02T04:41:12;359.7;;;-146.1;100.0
45864;BME280;31579;52.354;16.974;2023-05-02T04:42:15;359.8;;;-146.1;100.0
45864;BME280;31579;52.354;16.974;2023-05-02T04:43:19;361.5;;;-146.1;100.0
45864;BME280;31579;52.354;16.974;2023-05-02T04:44:24;362.7;;;-146.1;100.0
45864;BME280;31579;52.354;16.974;2023-05-02T04:45:27;364.7;;;-146.1;100.0
45864;BME280;31579;52.354;16.974;2023-05-02T04:46:31;367.1;;;-146.1;100.0
45864;BME280;31579;52.354;16.974;2023-05-02T04:47:36;369.6;;;-146.1;100.0
45864;BME280;31579;52.354;16.974;2023-05-02T04:48:39;370.3;;;-146.1;100.0
45864;BME280;31579;52.354;16.974;2023-05-02T04:49:43;372.3;;;-146.1;100.0
45864;BME280;31579;52.354;16.974;2023-05-02T04:50:48;374.9;;;-146.1;100.0
45864;BME280;31579;52.354;16.974;2023-05-02T04:51:52;376.9;;;-146.1;100.0
45864;BME280;31579;52.354;16.974;2023-05-02T04:52:55;377.5;;;-146.1;100.0
45864;BME280;31579;52.354;16.974;2023-05-02T04:53:59;380.0;;;-146.1;100.0
45864;BME280;31579;52.354;16.974;2023-05-02T04:55:04;382.2;;;-146.1;100.0
45864;BME280;31579;52.354;16.974;2023-05-02T04:56:07;384.4;;;-146.1;100.0
45864;BME280;31579;52.354;16.974;2023-05-02T04:57:11;386.3;;;-146.1;100.0
45864;BME280;31579;52.354;16.974;2023-05-02T04:58:15;388.1;;;-146.1;100.0
45864;BME280;31579;52.354;16.974;2023-05-02T04:59:19;389.0;;;-146.1;100.0
45864;BME280;31579;52.354;16.974;2023-05-02T05:00:24;390.3;;;-146.1;100.0
45864;BME280;31579;52.354;16.974;2023-05-02T05:01:28;391.2;;;-146.1;100.0
45864;BME280;31579;52.354;16.974;2023-05-02T05:02:32;392.4;;;-146.1;100.0
45864;BME280;31579;52.354;16.974;2023-05-02T05:03:36;394.0;;;-146.1;100.0
45864;BME280;31579;52.354;16.974;2023-05-02T05:04:41;395.6;;;-146.1;100.0
45864;BME280;31579;52.354;16.974;2023-05-02T05:05:44;396.9;;;-146.1;100.0
45864;BME280;31579;52.354;16.974;2023-05-02T05:06:49;398.0;;;-146.1;100.0
45864;BME280;31579;52.354;16.974;2023-05-02T05:07:52;398.5;;;-146.1;100.0
45864;BME280;31579;52.354;16.974;2023-05-02T05:08:56;399.5;;;-146.1;100.0
45864;BME280;31579;52.354;16.974;2023-05-02T05:10:01;399.6;;;-146.1;100.0
45864;BME280;31579;52.354;16.974;2023-05-02T05:11:05;400.1;;;-146.1;100.0
45864;BME280;31579;52.354;16.974;2023-05-02T05:12:09;400.1;;;-146.1;100.0
45864;BME280;31579;52.354;16.974;2023-05-02T05:13:13;400.2;;;-146.1;100.0
45864;BME280;31579;52.354;16.974;2023-05-02T05:14:17;400.4;;;-146.1;100.0
45864;BME280;31579;52.354;16.974;2023-05-02T05:15:21;400.5;;;-146.1;100.0
45864;BME280;31579;52.354;16.974;2023-05-02T05:16:25;400.5;;;-146.1;100.0
45864;BME280;31579;52.354;16.974;2023-05-02T05:17:30;400.9;;;-146.1;100.0
45864;BME280;31579;52.354;16.974;2023-05-02T05:18:34;401.5;;;-146.1;100.0
45864;BME280;31579;52.354;16.974;2023-05-02T05:19:37;401.5;;;-146.1;100.0
45864;BME280;31579;52.354;16.974;2023-05-02T05:20:42;402.0;;;-146.1;100.0
45864;BME280;31579;52.354;16.974;2023-05-02T05:21:45;402.3;;;-146.1;100.0
45864;BME280;31579;52.354;16.974;2023-05-02T05:22:50;402.8;;;-146.1;100.0
45864;BME280;31579;52.354;16.974;2023-05-02T05:23:54;403.6;;;-146.1;100.0
45864;BME280;31579;52.354;16.974;2023-05-02T05:24:57;404.6;;;-146.1;100.0
45864;BME280;31579;52.354;16.974;2023-05-02T05:27:06;407.3;;;-146.1;100.0
45864;BME280;31579;52.354;16.974;2023-05-02T05:28:10;409.5;;;-146.1;100.0
45864;BME280;31579;52.354;16.974;2023-05-02T05:29:14;410.6;;;-146.1;100.0
45864;BME280;31579;52.354;16.974;2023-05-02T05:30:19;411.8;;;-146.1;100.0
45864;BME280;31579;52.354;16.974;2023-05-02T05:31:22;413.0;;;-146.1;100.0
45864;BME280;31579;52.354;16.974;2023-05-02T05:32:26;414.3;;;-146.1;100.0
45864;BME280;31579;52.354;16.974;2023-05-02T05:33:36;396.3;;;-146.1;100.0
45864;BME280;31579;52.354;16.974;2023-05-02T05:34:41;411.6;;;-146.1;100.0
45864;BME280;31579;52.354;16.974;2023-05-02T05:35:45;415.8;;;-146.1;100.0
45864;BME280;31579;52.354;16.974;2023-05-02T05:36:49;419.6;;;-146.1;100.0
45864;BME280;31579;52.354;16.974;2023-05-02T05:37:53;422.4;;;-146.1;100.0
45864;BME280;31579;52.354;16.974;2023-05-02T05:38:57;424.7;;;-146.1;100.0
45864;BME280;31579;52.354;16.974;2023-05-02T05:40:01;426.1;;;-146.1;100.0
45864;BME280;31579;52.354;16.974;2023-05-02T05:41:06;427.1;;;-146.1;100.0
45864;BME280;31579;52.354;16.974;2023-05-02T05:42:10;427.4;;;-146.1;100.0
45864;BME280;31579;52.354;16.974;2023-05-02T05:43:14;428.3;;;-146.1;100.0
45864;BME280;31579;52.354;16.974;2023-05-02T05:44:18;428.9;;;-146.1;100.0
45864;BME280;31579;52.354;16.974;2023-05-02T05:45:22;429.6;;;-146.1;100.0
45864;BME280;31579;52.354;16.974;2023-05-02T05:46:26;430.4;;;-146.1;100.0
45864;BME280;31579;52.354;16.974;2023-05-02T05:47:30;431.4;;;-146.1;100.0
45864;BME280;31579;52.354;16.974;2023-05-02T05:48:33;445.5;;;-146.1;100.0
45864;BME280;31579;52.354;16.974;2023-05-02T05:49:37;437.0;;;-146.1;100.0
45864;BME280;31579;52.354;16.974;2023-05-02T05:50:41;436.7;;;-146.1;100.0
45864;BME280;31579;52.354;16.974;2023-05-02T05:51:45;436.4;;;-146.1;100.0
45864;BME280;31579;52.354;16.974;2023-05-02T05:52:49;437.2;;;-146.1;100.0
45864;BME280;31579;52.354;16.974;2023-05-02T05:53:53;438.5;;;-146.1;100.0
45864;BME280;31579;52.354;16.974;2023-05-02T05:54:57;439.0;;;-146.1;100.0
45864;BME280;31579;52.354;16.974;2023-05-02T05:57:04;447.1;;;-146.1;100.0
45864;BME280;31579;52.354;16.974;2023-05-02T05:58:08;442.0;;;-146.1;100.0
45864;BME280;31579;52.354;16.974;2023-05-02T05:59:12;442.0;;;-146.1;100.0
45864;BME280;31579;52.354;16.974;2023-05-02T06:00:16;442.9;;;-146.1;100.0
45864;BME280;31579;52.354;16.974;2023-05-02T06:01:20;443.7;;;-146.1;100.0
45864;BME280;31579;52.354;16.974;2023-05-02T06:02:24;444.5;;;-146.1;100.0
45864;BME280;31579;52.354;16.974;2023-05-02T06:03:28;445.0;;;-146.1;100.0
45864;BME280;31579;52.354;16.974;2023-05-02T06:04:33;435.5;;;-146.1;100.0
45864;BME280;31579;52.354;16.974;2023-05-02T06:05:37;444.1;;;-146.1;100.0
45864;BME280;31579;52.354;16.974;2023-05-02T06:06:41;445.7;;;-146.1;100.0
45864;BME280;31579;52.354;16.974;2023-05-02T06:07:45;446.4;;;-146.1;100.0
45864;BME280;31579;52.354;16.974;2023-05-02T06:08:49;447.1;;;-146.1;100.0
45864;BME280;31579;52.354;16.974;2023-05-02T06:09:54;447.5;;;-146.1;100.0
45864;BME280;31579;52.354;16.974;2023-05-02T06:10:58;447.1;;;-146.1;100.0
45864;BME280;31579;52.354;16.974;2023-05-02T06:12:02;447.9;;;-146.1;100.0
45864;BME280;31579;52.354;16.974;2023-05-02T06:13:06;448.6;;;-146.1;100.0
45864;BME280;31579;52.354;16.974;2023-05-02T06:14:10;449.0;;;-146.1;100.0
45864;BME280;31579;52.354;16.974;2023-05-02T06:15:14;449.2;;;-146.1;100.0
45864;BME280;31579;52.354;16.974;2023-05-02T06:16:18;449.2;;;-146.1;100.0
45864;BME280;31579;52.354;16.974;2023-05-02T06:17:23;449.7;;;-146.1;100.0
45864;BME280;31579;52.354;16.974;2023-05-02T06:18:27;449.6;;;-146.1;100.0
45864;BME280;31579;52.354;16.974;2023-05-02T06:19:31;448.6;;;-146.1;100.0
45864;BME280;31579;52.354;16.974;2023-05-02T06:20:35;447.1;;;-146.1;100.0